Pascal — V2LP — position and weather

sailwx.info

Track history (hours):
 
Tides and Currents Weather Stations Pressure Air Temp Water Temp Dewpoint Dewpoint Depression Visibility Wind Speed Wind Dir Waves Ship Positions

Pascal

Last reported at 2018-May-20 17:27 UTC. Time now 2018-May-20 17:50 UTC.
Position N 51°21' E 004°17'.

Length 90 m; draft 5.9 m.

Type: Cargo ship. MMSI: 304291000.

Date/timePositionNaut miles runAvg speedWind from/ knotsBaromVisibWave heightAir tempDewpointWater temp
2018-May-20 17:27N 51°21' E 004°17'0 0.0
2018-May-20 16:57N 51°21' E 004°17'0 0.0
2018-May-20 16:27N 51°21' E 004°17'0 0.0
2018-May-20 15:57N 51°21' E 004°17'0 0.0
2018-May-20 15:27N 51°21' E 004°17'0 0.0
2018-May-20 14:57N 51°21' E 004°17'0 0.0
2018-May-20 14:30N 51°21' E 004°17'0 0.0
2018-May-20 13:57N 51°21' E 004°17'0 0.0
2018-May-20 13:27N 51°21' E 004°17'0 0.0
2018-May-20 12:57N 51°21' E 004°17'0 0.0
2018-May-20 12:21N 51°21' E 004°17'0 0.0
2018-May-20 11:24N 51°21' E 004°17'0 0.0
2018-May-20 10:42N 51°21' E 004°17'0 0.0
2018-May-20 10:21N 51°21' E 004°17'0 0.0
2018-May-20 09:45N 51°21' E 004°17'0 0.0
2018-May-20 09:18N 51°21' E 004°17'0 0.0
2018-May-20 08:57N 51°21' E 004°17'0 0.0
2018-May-20 08:30N 51°21' E 004°17'0 0.0
2018-May-20 07:57N 51°21' E 004°17'0 0.0
2018-May-20 07:09N 51°21' E 004°17'0 0.0
2018-May-20 07:00N 51°21' E 004°17'0 0.0
2018-May-20 06:30N 51°21' E 004°17'0 0.0
2018-May-20 05:57N 51°21' E 004°17'0 0.0
2018-May-20 05:27N 51°21' E 004°17'0 0.0
2018-May-20 04:45N 51°21' E 004°17'0 0.0
2018-May-20 03:51N 51°21' E 004°17'0 0.0
2018-May-20 03:21N 51°21' E 004°17'0 0.0
2018-May-20 02:57N 51°21' E 004°17'0 0.0
2018-May-20 02:27N 51°21' E 004°17'0 0.0
2018-May-20 01:57N 51°21' E 004°17'0 0.0
2018-May-20 01:27N 51°21' E 004°17'0 0.0
2018-May-20 00:15N 51°21' E 004°17'0 0.0
2018-May-19 23:03N 51°21' E 004°17'0 0.0
2018-May-19 22:57N 51°21' E 004°17'0 0.2
2018-May-19 22:30N 51°21' E 004°18'1 1.2
2018-May-19 21:59N 51°21' E 004°17'0 0.1
2018-May-19 21:30N 51°21' E 004°17'0 0.8
2018-May-19 21:00N 51°21' E 004°16'2 4.8
2018-May-19 20:30N 51°22' E 004°13'2 4.7
2018-May-19 19:59N 51°23' E 004°09'3 5.9
2018-May-19 19:30N 51°22' E 004°05'3 6.4
2018-May-19 19:00N 51°25' E 004°02'3 4.8
2018-May-19 18:29N 51°25' E 003°58'4 8.2
2018-May-19 17:58N 51°21' E 003°54'4 8.7
2018-May-19 17:29N 51°21' E 003°47'5 9.3
2018-May-19 17:00N 51°24' E 003°42'141 6.9
2018-May-18 20:29N 53°35' E 005°07'4 7.7
2018-May-18 19:58N 53°36' E 005°13'124 8.6
2018-May-18 05:31N 53°56' E 008°40'212.7
2018-May-18 05:21N 53°54' E 008°42'412.6
2018-May-18 05:00N 53°51' E 008°47'511.1
2018-May-18 04:30N 53°51' E 008°56'510.0
2018-May-18 04:00N 53°52' E 009°04'4 8.5
2018-May-18 03:30N 53°53' E 009°11'4 7.5
2018-May-18 03:00N 53°52' E 009°17'4 7.2
2018-May-18 02:30N 53°50' E 009°22'3 7.0
2018-May-18 02:00N 53°46' E 009°24'3 6.5
2018-May-18 01:30N 53°44' E 009°27'3 6.4
2018-May-18 01:00N 53°41' E 009°30'3 6.5
2018-May-18 00:30N 53°38' E 009°32'4 7.7
2018-May-18 00:00N 53°35' E 009°37'5 9.8
2018-May-17 23:30N 53°34' E 009°45'510.5
2018-May-17 23:00N 53°33' E 009°53'3 6.5
2018-May-17 22:30N 53°30' E 009°57'0 0.2
2018-May-17 22:00N 53°30' E 009°57'0 0.0
2018-May-17 21:30N 53°30' E 009°57'0 0.0
2018-May-17 21:00N 53°30' E 009°57'0 0.0
2018-May-17 20:30N 53°30' E 009°57'0 0.0
2018-May-17 20:00N 53°30' E 009°57'0 0.0
2018-May-17 19:30N 53°30' E 009°57'0 0.0
2018-May-17 19:00N 53°30' E 009°57'0 0.0
2018-May-17 18:30N 53°30' E 009°57'0 0.0
2018-May-17 18:00N 53°30' E 009°57'0 0.0
2018-May-17 17:30N 53°30' E 009°57'0 0.0
2018-May-17 17:00N 53°30' E 009°57'0 0.0
2018-May-17 16:30N 53°30' E 009°57'0 0.0
2018-May-17 16:00N 53°30' E 009°57'0 0.0
2018-May-17 15:30N 53°30' E 009°57'0 0.0
2018-May-17 15:00N 53°30' E 009°57'0 0.0
2018-May-17 14:30N 53°30' E 009°57'0 0.0
2018-May-17 14:00N 53°30' E 009°57'0 0.0
2018-May-17 13:30N 53°30' E 009°57'0 0.0
2018-May-17 13:00N 53°30' E 009°57'0 0.0
2018-May-17 12:30N 53°30' E 009°57'0 0.0
2018-May-17 12:00N 53°30' E 009°57'0 0.0
2018-May-17 11:30N 53°30' E 009°57'0 0.0
2018-May-17 11:00N 53°30' E 009°57'0 0.0
2018-May-17 10:30N 53°30' E 009°57'0 0.2
2018-May-17 10:00N 53°30' E 009°57'3 5.8
2018-May-17 09:30N 53°32' E 009°54'4 8.5
2018-May-17 09:00N 53°33' E 009°47'4 8.6
2018-May-17 08:30N 53°34' E 009°40'4 8.5
2018-May-17 08:00N 53°37' E 009°34'4 8.2
2018-May-17 07:30N 53°40' E 009°30'4 8.1
2018-May-17 07:00N 53°44' E 009°27'4 7.8
2018-May-17 06:30N 53°47' E 009°23'4 7.8
2018-May-17 06:00N 53°50' E 009°20'4 7.8
2018-May-17 05:30N 53°53' E 009°15'3 5.7
2018-May-17 04:59N 53°53' E 009°10'0 0.0
2018-May-17 04:28N 53°53' E 009°10'0 0.2
2018-May-17 03:59N 53°53' E 009°10'0 0.1
2018-May-17 03:28N 53°53' E 009°10'0 0.1
2018-May-17 02:58N 53°53' E 009°10'0 0.0
2018-May-17 02:28N 53°53' E 009°10'0 0.0
2018-May-17 01:58N 53°53' E 009°10'0 0.0
2018-May-17 01:28N 53°53' E 009°10'0 0.0
2018-May-17 00:58N 53°53' E 009°10'0 0.0
2018-May-17 00:25N 53°53' E 009°10'0 0.0
2018-May-16 23:59N 53°53' E 009°10'0 0.0
2018-May-16 23:28N 53°53' E 009°10'0 0.0
2018-May-16 22:58N 53°53' E 009°10'0 0.1
2018-May-16 22:28N 53°53' E 009°10'0 0.1
2018-May-16 21:55N 53°53' E 009°10'0 0.3
2018-May-16 21:28N 53°53' E 009°10'0 0.0
2018-May-16 20:59N 53°53' E 009°10'0 0.0
2018-May-16 20:28N 53°53' E 009°10'0 0.0
2018-May-16 19:47N 53°53' E 009°10'0 0.0
2018-May-16 19:29N 53°53' E 009°10'0 0.0
2018-May-16 18:53N 53°53' E 009°10'0 0.0
2018-May-16 18:28N 53°53' E 009°10'0 0.0
2018-May-16 17:44N 53°53' E 009°10'0 0.0
2018-May-16 17:26N 53°53' E 009°10'0 0.0
2018-May-16 16:56N 53°53' E 009°10'0 0.0
2018-May-16 16:26N 53°53' E 009°10'0 0.2
2018-May-16 15:59N 53°53' E 009°10'0 0.1
2018-May-16 15:23N 53°53' E 009°10'0 0.1
2018-May-16 14:59N 53°53' E 009°10'0 0.0
2018-May-16 14:29N 53°53' E 009°10'0 0.0
2018-May-16 13:53N 53°53' E 009°10'0 0.0
2018-May-16 13:14N 53°53' E 009°10'0 0.0
2018-May-16 12:59N 53°53' E 009°10'0 0.0
2018-May-16 12:29N 53°53' E 009°10'0 0.0
2018-May-16 11:59N 53°53' E 009°10'0 0.0
2018-May-16 11:11N 53°53' E 009°10'0 0.0
2018-May-16 10:50N 53°53' E 009°10'0 0.0
2018-May-16 10:14N 53°53' E 009°10'0 0.1
2018-May-16 09:59N 53°53' E 009°10'0 0.2
2018-May-16 09:23N 53°53' E 009°10'0 0.2
2018-May-16 08:53N 53°53' E 009°10'0 0.0
2018-May-16 08:17N 53°53' E 009°10'0 0.0
2018-May-16 07:53N 53°53' E 009°10'0 0.0
2018-May-16 07:19N 53°53' E 009°10'0 0.0
2018-May-16 06:55N 53°53' E 009°10'0 0.0
2018-May-16 06:28N 53°53' E 009°10'0 0.0
2018-May-16 05:55N 53°53' E 009°10'0 0.0
2018-May-16 05:28N 53°53' E 009°10'0 0.0
2018-May-16 04:55N 53°53' E 009°10'0 0.0
2018-May-16 04:25N 53°53' E 009°10'0 0.0
2018-May-16 03:59N 53°53' E 009°10'0 0.1
2018-May-16 03:26N 53°53' E 009°10'0 0.2
2018-May-16 02:59N 53°53' E 009°10'0 0.0
2018-May-16 02:26N 53°53' E 009°10'0 0.0
2018-May-16 01:56N 53°53' E 009°10'0 0.0
2018-May-16 01:29N 53°53' E 009°10'0 0.1
2018-May-16 00:59N 53°53' E 009°10'3 5.3
2018-May-16 00:30N 53°53' E 009°05'611.9
2018-May-16 00:00N 53°51' E 008°56'612.1
2018-May-15 23:30N 53°51' E 008°46'612.6
2018-May-15 23:00N 53°56' E 008°39'612.6
2018-May-15 22:29N 53°58' E 008°29'612.4
2018-May-15 22:00N 53°59' E 008°19'611.7
2018-May-15 21:30N 53°59' E 008°09'611.2
2018-May-15 21:00N 53°58' E 007°60'610.7
2018-May-15 20:29N 53°57' E 007°51'5210.4
2018-May-15 15:27N 53°45' E 006°24'3 6.7
2018-May-15 15:00N 53°44' E 006°19'3 6.6
2018-May-15 14:30N 53°43' E 006°14'3 6.5
2018-May-15 14:00N 53°42' E 006°09'3 5.7
2018-May-15 13:30N 53°41' E 006°04'3 5.7
2018-May-15 12:56N 53°40' E 005°59'2 5.8
2018-May-15 12:30N 53°39' E 005°55'3 5.9
2018-May-15 12:00N 53°38' E 005°50'3 5.3
2018-May-15 11:29N 53°37' E 005°46'5 5.6
2018-May-15 10:36N 53°36' E 005°38'1 6.0
2018-May-15 10:27N 53°36' E 005°36'3 6.2
2018-May-15 10:00N 53°35' E 005°32'3 6.2
2018-May-15 09:30N 53°34' E 005°27'3 6.0
2018-May-15 08:59N 53°33' E 005°22'3 5.4
2018-May-15 08:29N 53°32' E 005°18'3 5.6
2018-May-15 08:00N 53°31' E 005°14'3 5.8
2018-May-15 07:30N 53°30' E 005°09'3 6.1
2018-May-15 07:00N 53°29' E 005°04'3 6.4
2018-May-15 06:30N 53°28' E 004°59'3 6.8
2018-May-15 06:00N 53°27' E 004°54'4 8.4
2018-May-15 05:30N 53°25' E 004°47'4 7.8
2018-May-15 05:00N 53°23' E 004°41'4 8.3
2018-May-15 04:30N 53°20' E 004°39'5 8.6
2018-May-15 03:57N 53°15' E 004°36'4 8.7
2018-May-15 03:30N 53°11' E 004°33'4 8.2
2018-May-15 03:00N 53°08' E 004°30'4 7.8
2018-May-15 02:28N 53°04' E 004°26'3 7.1
2018-May-15 02:00N 53°02' E 004°23'3 6.4
2018-May-15 01:31N 52°59' E 004°21'3 6.0
2018-May-15 01:00N 52°56' E 004°19'3 5.5
2018-May-15 00:30N 52°54' E 004°17'3 5.4
2018-May-14 23:55N 52°51' E 004°15'3 5.4
2018-May-14 23:21N 52°48' E 004°12'2 5.3
2018-May-14 22:54N 52°46' E 004°11'2 5.1
2018-May-14 22:30N 52°44' E 004°09'3 5.0
2018-May-14 22:00N 52°42' E 004°08'2 4.8
2018-May-14 21:30N 52°39' E 004°07'3 5.0
2018-May-14 21:00N 52°37' E 004°06'3 5.2
2018-May-14 20:30N 52°34' E 004°07'3 5.1
2018-May-14 20:00N 52°32' E 004°10'4 7.2
2018-May-14 19:30N 52°31' E 004°15'3 6.5
2018-May-14 19:00N 52°31' E 004°20'0 0.3
2018-May-14 18:24N 52°31' E 004°20'0 0.0
2018-May-14 17:45N 52°31' E 004°20'0 0.0
2018-May-14 17:21N 52°31' E 004°20'0 0.1
2018-May-14 16:48N 52°31' E 004°20'0 0.2
2018-May-14 16:30N 52°31' E 004°20'0 0.1
2018-May-14 16:00N 52°31' E 004°20'0 0.0
2018-May-14 15:27N 52°31' E 004°20'0 0.0
2018-May-14 15:00N 52°31' E 004°20'0 0.0
2018-May-14 14:30N 52°31' E 004°20'0 0.0
2018-May-14 13:51N 52°31' E 004°20'0 0.1
2018-May-14 13:30N 52°31' E 004°20'0 0.2
2018-May-14 13:00N 52°31' E 004°20'0 0.1
2018-May-14 12:30N 52°31' E 004°20'0 0.0
2018-May-14 11:54N 52°31' E 004°20'0 0.0
2018-May-14 09:00N 52°31' E 004°20'0 0.0
2018-May-14 08:30N 52°31' E 004°20'0 0.0
2018-May-14 07:51N 52°31' E 004°20'0 0.0
2018-May-14 06:42N 52°31' E 004°20'0 0.1
2018-May-14 06:27N 52°31' E 004°20'0 0.1
2018-May-14 05:57N 52°31' E 004°20'0 0.0
2018-May-14 05:30N 52°31' E 004°20'0 0.0
2018-May-14 05:00N 52°31' E 004°20'0 0.1
2018-May-14 04:30N 52°31' E 004°20'0 0.2
2018-May-14 04:00N 52°31' E 004°20'0 0.1
2018-May-14 03:30N 52°31' E 004°20'0 0.0
2018-May-14 03:00N 52°31' E 004°20'0 0.0
2018-May-14 02:30N 52°31' E 004°20'0 0.0
2018-May-14 01:57N 52°31' E 004°20'0 0.0
2018-May-14 01:21N 52°31' E 004°20'0 0.1
2018-May-14 00:51N 52°31' E 004°20'0 0.1
2018-May-14 00:18N 52°31' E 004°20'0 0.1
2018-May-14 00:00N 52°31' E 004°20'0 0.0
2018-May-13 23:27N 52°31' E 004°20'0 0.0
2018-May-13 22:57N 52°31' E 004°20'0 0.0
2018-May-13 18:51N 52°31' E 004°20'0 0.0
2018-May-13 18:24N 52°31' E 004°20'0 0.0
2018-May-13 18:00N 52°31' E 004°20'0 0.1
2018-May-13 17:27N 52°31' E 004°20'0 0.1
2018-May-13 16:06N 52°31' E 004°20'0 0.1
2018-May-13 16:00N 52°31' E 004°20'0 0.0
2018-May-13 15:27N 52°31' E 004°20'0 0.0
2018-May-13 15:00N 52°31' E 004°20'0 0.0
2018-May-13 14:30N 52°31' E 004°20'0 0.0
2018-May-13 13:54N 52°31' E 004°20'0 0.0
2018-May-13 13:30N 52°31' E 004°20'0 0.0
2018-May-13 12:51N 52°31' E 004°20'0 0.0
2018-May-13 12:27N 52°31' E 004°20'0 0.1
2018-May-13 12:00N 52°31' E 004°20'0 0.1
2018-May-13 11:30N 52°31' E 004°20'0 0.1
2018-May-13 11:00N 52°31' E 004°20'0 0.1
2018-May-13 10:27N 52°31' E 004°20'0 0.0
2018-May-13 08:09N 52°31' E 004°20'0 0.0
2018-May-13 07:57N 52°31' E 004°20'0 0.0
2018-May-13 07:30N 52°31' E 004°20'0 0.0
2018-May-13 07:00N 52°31' E 004°20'0 0.1
2018-May-13 06:30N 52°31' E 004°20'0 0.1
2018-May-13 05:33N 52°31' E 004°20'0 0.1
2018-May-13 05:30N 52°31' E 004°20'0 0.0
2018-May-13 05:00N 52°31' E 004°20'0 0.1
2018-May-13 04:30N 52°31' E 004°20'0 0.0
2018-May-13 03:57N 52°31' E 004°20'0 0.0
2018-May-13 03:30N 52°31' E 004°20'0 0.0
2018-May-13 03:00N 52°31' E 004°20'0 0.0
2018-May-13 02:27N 52°31' E 004°20'0 0.0
2018-May-13 01:48N 52°31' E 004°20'0 0.0
2018-May-13 01:30N 52°31' E 004°20'0 0.0
2018-May-13 00:57N 52°31' E 004°20'0 0.0
2018-May-13 00:30N 52°31' E 004°20'0 0.0
2018-May-12 23:54N 52°31' E 004°20'0 0.2
2018-May-12 23:30N 52°31' E 004°20'0 0.1
2018-May-12 22:54N 52°31' E 004°20'0 0.0
2018-May-12 22:21N 52°31' E 004°20'0 0.0
2018-May-12 21:51N 52°31' E 004°20'0 0.0
2018-May-12 21:27N 52°31' E 004°20'0 0.0
2018-May-12 21:00N 52°31' E 004°20'0 0.0
2018-May-12 20:30N 52°31' E 004°20'0 0.0
2018-May-12 20:00N 52°31' E 004°20'0 0.0
2018-May-12 19:30N 52°31' E 004°20'0 0.0
2018-May-12 19:00N 52°31' E 004°20'0 0.0
2018-May-12 18:30N 52°31' E 004°20'0 0.0
2018-May-12 17:54N 52°31' E 004°20'0 0.0
2018-May-12 16:33N 52°31' E 004°20'0 0.1
2018-May-12 16:30N 52°31' E 004°20'0 0.2
2018-May-12 15:54N 52°31' E 004°20'0 0.1
2018-May-12 15:27N 52°31' E 004°20'0 0.0
2018-May-12 14:54N 52°31' E 004°20'0 0.0
2018-May-12 14:27N 52°31' E 004°20'0 0.0
2018-May-12 13:54N 52°31' E 004°20'0 0.0
2018-May-12 13:24N 52°31' E 004°20'0 0.0
2018-May-12 12:42N 52°31' E 004°20'0 0.1
2018-May-12 12:27N 52°31' E 004°20'0 0.0
2018-May-12 11:51N 52°31' E 004°20'0 0.0
2018-May-12 11:27N 52°31' E 004°20'0 0.1
2018-May-12 10:57N 52°31' E 004°20'0 0.2
2018-May-12 10:27N 52°31' E 004°20'0 0.0
2018-May-12 09:54N 52°31' E 004°20'0 0.0
2018-May-12 09:30N 52°31' E 004°20'2 3.3
2018-May-12 09:00N 52°30' E 004°23'4 9.2
2018-May-12 08:30N 52°29' E 004°30'4 8.1
2018-May-12 08:00N 52°28' E 004°36'1 1.6
2018-May-12 07:30N 52°28' E 004°37'4 7.3
2018-May-12 07:01N 52°26' E 004°43'4 7.9
2018-May-12 06:30N 52°25' E 004°49'0 0.2
2018-May-12 06:00N 52°25' E 004°49'0 0.0
2018-May-12 05:30N 52°25' E 004°49'0 0.0
2018-May-12 04:57N 52°25' E 004°49'0 0.0
2018-May-12 04:30N 52°25' E 004°49'0 0.0
2018-May-12 04:00N 52°25' E 004°49'0 0.0
2018-May-12 03:27N 52°25' E 004°49'0 0.0
2018-May-12 03:00N 52°25' E 004°49'0 0.0
2018-May-12 02:30N 52°25' E 004°49'0 0.0
2018-May-12 02:00N 52°25' E 004°49'0 0.0
2018-May-12 01:30N 52°25' E 004°49'0 0.0
2018-May-12 01:00N 52°25' E 004°49'0 0.0
2018-May-12 00:30N 52°25' E 004°49'0 0.0
2018-May-12 00:00N 52°25' E 004°49'0 0.0
2018-May-11 23:30N 52°25' E 004°49'0 0.0
2018-May-11 22:57N 52°25' E 004°49'0 0.0
2018-May-11 22:30N 52°25' E 004°49'0 0.0
2018-May-11 21:48N 52°25' E 004°49'0 0.0
2018-May-11 21:30N 52°25' E 004°49'0 0.0
2018-May-11 20:57N 52°25' E 004°49'0 0.0
2018-May-11 20:30N 52°25' E 004°49'0 0.0
2018-May-11 20:00N 52°25' E 004°49'0 0.0
2018-May-11 19:27N 52°25' E 004°49'0 0.0
2018-May-11 19:00N 52°25' E 004°49'0 0.0
2018-May-11 18:30N 52°25' E 004°49'0 0.0
2018-May-11 18:00N 52°25' E 004°49'0 0.0
2018-May-11 17:30N 52°25' E 004°49'0 0.0
2018-May-11 17:00N 52°25' E 004°49'0 0.0
2018-May-11 16:30N 52°25' E 004°49'0 0.0
2018-May-11 16:00N 52°25' E 004°49'0 0.0
2018-May-11 15:30N 52°25' E 004°49'0 0.0
2018-May-11 15:01N 52°25' E 004°49'0 0.0
2018-May-11 14:25N 52°25' E 004°49'0 0.0
2018-May-11 13:55N 52°25' E 004°49'0 0.0
2018-May-11 13:28N 52°25' E 004°49'0 0.0
2018-May-11 12:55N 52°25' E 004°49'0 0.0
2018-May-11 12:28N 52°25' E 004°49'0 0.0
2018-May-11 11:55N 52°25' E 004°49'0 0.0
2018-May-11 11:28N 52°25' E 004°49'0 0.0
2018-May-11 10:58N 52°25' E 004°49'0 0.0
2018-May-11 10:25N 52°25' E 004°49'0 0.0
2018-May-11 09:58N 52°25' E 004°49'0 0.0
2018-May-11 09:28N 52°25' E 004°49'0 0.0
2018-May-11 08:55N 52°25' E 004°49'0 0.0
2018-May-11 08:28N 52°25' E 004°49'0 0.0
2018-May-11 07:58N 52°25' E 004°49'0 0.0
2018-May-11 07:25N 52°25' E 004°49'0 0.0
2018-May-11 06:58N 52°25' E 004°49'0 0.0
2018-May-11 06:28N 52°25' E 004°49'0 0.0
2018-May-11 05:52N 52°25' E 004°49'0 0.0
2018-May-11 05:28N 52°25' E 004°49'0 0.0
2018-May-11 04:58N 52°25' E 004°49'0 0.0
2018-May-11 04:28N 52°25' E 004°49'0 0.0
2018-May-11 03:58N 52°25' E 004°49'0 0.0
2018-May-11 03:25N 52°25' E 004°49'0 0.0
2018-May-11 02:58N 52°25' E 004°49'0 0.0
2018-May-11 02:28N 52°25' E 004°49'0 0.0
2018-May-11 01:58N 52°25' E 004°49'0 0.0
2018-May-11 01:28N 52°25' E 004°49'0 0.0
2018-May-11 00:55N 52°25' E 004°49'0 0.0
2018-May-11 00:28N 52°25' E 004°49'0 0.0
2018-May-10 23:58N 52°25' E 004°49'0 0.0
2018-May-10 23:28N 52°25' E 004°49'0 0.0
2018-May-10 22:58N 52°25' E 004°49'0 0.0
2018-May-10 22:28N 52°25' E 004°49'0 0.0
2018-May-10 21:58N 52°25' E 004°49'0 0.0
2018-May-10 21:22N 52°25' E 004°49'0 0.0
2018-May-10 20:58N 52°25' E 004°49'0 0.0
2018-May-10 20:28N 52°25' E 004°49'0 0.0
2018-May-10 19:58N 52°25' E 004°49'0 0.0
2018-May-10 19:25N 52°25' E 004°49'0 0.0
2018-May-10 18:58N 52°25' E 004°49'0 0.0
2018-May-10 18:28N 52°25' E 004°49'0 0.0
2018-May-10 17:59N 52°25' E 004°49'  
Track history (hours):
 
Tides and Currents Weather Stations Pressure Air Temp Water Temp Dewpoint Dewpoint Depression Visibility Wind Speed Wind Dir Waves Ship Positions

Pascal

Last reported at 2018-May-20 17:27 UTC. Time now 2018-May-20 17:50 UTC.
Position N 51°21' E 004°17'.

Length 90 m; draft 5.9 m.

Type: Cargo ship. MMSI: 304291000.

Date/timePositionNaut miles runAvg speedWind from/ knotsBaromVisibWave heightAir tempDewpointWater temp
2018-May-20 17:27N 51°21' E 004°17'0 0.0
2018-May-20 16:57N 51°21' E 004°17'0 0.0
2018-May-20 16:27N 51°21' E 004°17'0 0.0
2018-May-20 15:57N 51°21' E 004°17'0 0.0
2018-May-20 15:27N 51°21' E 004°17'0 0.0
2018-May-20 14:57N 51°21' E 004°17'0 0.0
2018-May-20 14:30N 51°21' E 004°17'0 0.0
2018-May-20 13:57N 51°21' E 004°17'0 0.0
2018-May-20 13:27N 51°21' E 004°17'0 0.0
2018-May-20 12:57N 51°21' E 004°17'0 0.0
2018-May-20 12:21N 51°21' E 004°17'0 0.0
2018-May-20 11:24N 51°21' E 004°17'0 0.0
2018-May-20 10:42N 51°21' E 004°17'0 0.0
2018-May-20 10:21N 51°21' E 004°17'0 0.0
2018-May-20 09:45N 51°21' E 004°17'0 0.0
2018-May-20 09:18N 51°21' E 004°17'0 0.0
2018-May-20 08:57N 51°21' E 004°17'0 0.0
2018-May-20 08:30N 51°21' E 004°17'0 0.0
2018-May-20 07:57N 51°21' E 004°17'0 0.0
2018-May-20 07:09N 51°21' E 004°17'0 0.0
2018-May-20 07:00N 51°21' E 004°17'0 0.0
2018-May-20 06:30N 51°21' E 004°17'0 0.0
2018-May-20 05:57N 51°21' E 004°17'0 0.0
2018-May-20 05:27N 51°21' E 004°17'0 0.0
2018-May-20 04:45N 51°21' E 004°17'0 0.0
2018-May-20 03:51N 51°21' E 004°17'0 0.0
2018-May-20 03:21N 51°21' E 004°17'0 0.0
2018-May-20 02:57N 51°21' E 004°17'0 0.0
2018-May-20 02:27N 51°21' E 004°17'0 0.0
2018-May-20 01:57N 51°21' E 004°17'0 0.0
2018-May-20 01:27N 51°21' E 004°17'0 0.0
2018-May-20 00:15N 51°21' E 004°17'0 0.0
2018-May-19 23:03N 51°21' E 004°17'0 0.0
2018-May-19 22:57N 51°21' E 004°17'0 0.2
2018-May-19 22:30N 51°21' E 004°18'1 1.2
2018-May-19 21:59N 51°21' E 004°17'0 0.1
2018-May-19 21:30N 51°21' E 004°17'0 0.8
2018-May-19 21:00N 51°21' E 004°16'2 4.8
2018-May-19 20:30N 51°22' E 004°13'2 4.7
2018-May-19 19:59N 51°23' E 004°09'3 5.9
2018-May-19 19:30N 51°22' E 004°05'3 6.4
2018-May-19 19:00N 51°25' E 004°02'3 4.8
2018-May-19 18:29N 51°25' E 003°58'4 8.2
2018-May-19 17:58N 51°21' E 003°54'4 8.7
2018-May-19 17:29N 51°21' E 003°47'5 9.3
2018-May-19 17:00N 51°24' E 003°42'141 6.9
2018-May-18 20:29N 53°35' E 005°07'4 7.7
2018-May-18 19:58N 53°36' E 005°13'124 8.6
2018-May-18 05:31N 53°56' E 008°40'212.7
2018-May-18 05:21N 53°54' E 008°42'412.6
2018-May-18 05:00N 53°51' E 008°47'511.1
2018-May-18 04:30N 53°51' E 008°56'510.0
2018-May-18 04:00N 53°52' E 009°04'4 8.5
2018-May-18 03:30N 53°53' E 009°11'4 7.5
2018-May-18 03:00N 53°52' E 009°17'4 7.2
2018-May-18 02:30N 53°50' E 009°22'3 7.0
2018-May-18 02:00N 53°46' E 009°24'3 6.5
2018-May-18 01:30N 53°44' E 009°27'3 6.4
2018-May-18 01:00N 53°41' E 009°30'3 6.5
2018-May-18 00:30N 53°38' E 009°32'4 7.7
2018-May-18 00:00N 53°35' E 009°37'5 9.8
2018-May-17 23:30N 53°34' E 009°45'510.5
2018-May-17 23:00N 53°33' E 009°53'3 6.5
2018-May-17 22:30N 53°30' E 009°57'0 0.2
2018-May-17 22:00N 53°30' E 009°57'0 0.0
2018-May-17 21:30N 53°30' E 009°57'0 0.0
2018-May-17 21:00N 53°30' E 009°57'0 0.0
2018-May-17 20:30N 53°30' E 009°57'0 0.0
2018-May-17 20:00N 53°30' E 009°57'0 0.0
2018-May-17 19:30N 53°30' E 009°57'0 0.0
2018-May-17 19:00N 53°30' E 009°57'0 0.0
2018-May-17 18:30N 53°30' E 009°57'0 0.0
2018-May-17 18:00N 53°30' E 009°57'0 0.0
2018-May-17 17:30N 53°30' E 009°57'0 0.0
2018-May-17 17:00N 53°30' E 009°57'0 0.0
2018-May-17 16:30N 53°30' E 009°57'0 0.0
2018-May-17 16:00N 53°30' E 009°57'0 0.0
2018-May-17 15:30N 53°30' E 009°57'0 0.0
2018-May-17 15:00N 53°30' E 009°57'0 0.0
2018-May-17 14:30N 53°30' E 009°57'0 0.0
2018-May-17 14:00N 53°30' E 009°57'0 0.0
2018-May-17 13:30N 53°30' E 009°57'0 0.0
2018-May-17 13:00N 53°30' E 009°57'0 0.0
2018-May-17 12:30N 53°30' E 009°57'0 0.0
2018-May-17 12:00N 53°30' E 009°57'0 0.0
2018-May-17 11:30N 53°30' E 009°57'0 0.0
2018-May-17 11:00N 53°30' E 009°57'0 0.0
2018-May-17 10:30N 53°30' E 009°57'0 0.2
2018-May-17 10:00N 53°30' E 009°57'3 5.8
2018-May-17 09:30N 53°32' E 009°54'4 8.5
2018-May-17 09:00N 53°33' E 009°47'4 8.6
2018-May-17 08:30N 53°34' E 009°40'4 8.5
2018-May-17 08:00N 53°37' E 009°34'4 8.2
2018-May-17 07:30N 53°40' E 009°30'4 8.1
2018-May-17 07:00N 53°44' E 009°27'4 7.8
2018-May-17 06:30N 53°47' E 009°23'4 7.8
2018-May-17 06:00N 53°50' E 009°20'4 7.8
2018-May-17 05:30N 53°53' E 009°15'3 5.7
2018-May-17 04:59N 53°53' E 009°10'0 0.0
2018-May-17 04:28N 53°53' E 009°10'0 0.2
2018-May-17 03:59N 53°53' E 009°10'0 0.1
2018-May-17 03:28N 53°53' E 009°10'0 0.1
2018-May-17 02:58N 53°53' E 009°10'0 0.0
2018-May-17 02:28N 53°53' E 009°10'0 0.0
2018-May-17 01:58N 53°53' E 009°10'0 0.0
2018-May-17 01:28N 53°53' E 009°10'0 0.0
2018-May-17 00:58N 53°53' E 009°10'0 0.0
2018-May-17 00:25N 53°53' E 009°10'0 0.0
2018-May-16 23:59N 53°53' E 009°10'0 0.0
2018-May-16 23:28N 53°53' E 009°10'0 0.0
2018-May-16 22:58N 53°53' E 009°10'0 0.1
2018-May-16 22:28N 53°53' E 009°10'0 0.1
2018-May-16 21:55N 53°53' E 009°10'0 0.3
2018-May-16 21:28N 53°53' E 009°10'0 0.0
2018-May-16 20:59N 53°53' E 009°10'0 0.0
2018-May-16 20:28N 53°53' E 009°10'0 0.0
2018-May-16 19:47N 53°53' E 009°10'0 0.0
2018-May-16 19:29N 53°53' E 009°10'0 0.0
2018-May-16 18:53N 53°53' E 009°10'0 0.0
2018-May-16 18:28N 53°53' E 009°10'0 0.0
2018-May-16 17:44N 53°53' E 009°10'0 0.0
2018-May-16 17:26N 53°53' E 009°10'0 0.0
2018-May-16 16:56N 53°53' E 009°10'0 0.0
2018-May-16 16:26N 53°53' E 009°10'0 0.2
2018-May-16 15:59N 53°53' E 009°10'0 0.1
2018-May-16 15:23N 53°53' E 009°10'0 0.1
2018-May-16 14:59N 53°53' E 009°10'0 0.0
2018-May-16 14:29N 53°53' E 009°10'0 0.0
2018-May-16 13:53N 53°53' E 009°10'0 0.0
2018-May-16 13:14N 53°53' E 009°10'0 0.0
2018-May-16 12:59N 53°53' E 009°10'0 0.0
2018-May-16 12:29N 53°53' E 009°10'0 0.0
2018-May-16 11:59N 53°53' E 009°10'0 0.0
2018-May-16 11:11N 53°53' E 009°10'0 0.0
2018-May-16 10:50N 53°53' E 009°10'0 0.0
2018-May-16 10:14N 53°53' E 009°10'0 0.1
2018-May-16 09:59N 53°53' E 009°10'0 0.2
2018-May-16 09:23N 53°53' E 009°10'0 0.2
2018-May-16 08:53N 53°53' E 009°10'0 0.0
2018-May-16 08:17N 53°53' E 009°10'0 0.0
2018-May-16 07:53N 53°53' E 009°10'0 0.0
2018-May-16 07:19N 53°53' E 009°10'0 0.0
2018-May-16 06:55N 53°53' E 009°10'0 0.0
2018-May-16 06:28N 53°53' E 009°10'0 0.0
2018-May-16 05:55N 53°53' E 009°10'0 0.0
2018-May-16 05:28N 53°53' E 009°10'0 0.0
2018-May-16 04:55N 53°53' E 009°10'0 0.0
2018-May-16 04:25N 53°53' E 009°10'0 0.0
2018-May-16 03:59N 53°53' E 009°10'0 0.1
2018-May-16 03:26N 53°53' E 009°10'0 0.2
2018-May-16 02:59N 53°53' E 009°10'0 0.0
2018-May-16 02:26N 53°53' E 009°10'0 0.0
2018-May-16 01:56N 53°53' E 009°10'0 0.0
2018-May-16 01:29N 53°53' E 009°10'0 0.1
2018-May-16 00:59N 53°53' E 009°10'3 5.3
2018-May-16 00:30N 53°53' E 009°05'611.9
2018-May-16 00:00N 53°51' E 008°56'612.1
2018-May-15 23:30N 53°51' E 008°46'612.6
2018-May-15 23:00N 53°56' E 008°39'612.6
2018-May-15 22:29N 53°58' E 008°29'612.4
2018-May-15 22:00N 53°59' E 008°19'611.7
2018-May-15 21:30N 53°59' E 008°09'611.2
2018-May-15 21:00N 53°58' E 007°60'610.7
2018-May-15 20:29N 53°57' E 007°51'5210.4
2018-May-15 15:27N 53°45' E 006°24'3 6.7
2018-May-15 15:00N 53°44' E 006°19'3 6.6
2018-May-15 14:30N 53°43' E 006°14'3 6.5
2018-May-15 14:00N 53°42' E 006°09'3 5.7
2018-May-15 13:30N 53°41' E 006°04'3 5.7
2018-May-15 12:56N 53°40' E 005°59'2 5.8
2018-May-15 12:30N 53°39' E 005°55'3 5.9
2018-May-15 12:00N 53°38' E 005°50'3 5.3
2018-May-15 11:29N 53°37' E 005°46'5 5.6
2018-May-15 10:36N 53°36' E 005°38'1 6.0
2018-May-15 10:27N 53°36' E 005°36'3 6.2
2018-May-15 10:00N 53°35' E 005°32'3 6.2
2018-May-15 09:30N 53°34' E 005°27'3 6.0
2018-May-15 08:59N 53°33' E 005°22'3 5.4
2018-May-15 08:29N 53°32' E 005°18'3 5.6
2018-May-15 08:00N 53°31' E 005°14'3 5.8
2018-May-15 07:30N 53°30' E 005°09'3 6.1
2018-May-15 07:00N 53°29' E 005°04'3 6.4
2018-May-15 06:30N 53°28' E 004°59'3 6.8
2018-May-15 06:00N 53°27' E 004°54'4 8.4
2018-May-15 05:30N 53°25' E 004°47'4 7.8
2018-May-15 05:00N 53°23' E 004°41'4 8.3
2018-May-15 04:30N 53°20' E 004°39'5 8.6
2018-May-15 03:57N 53°15' E 004°36'4 8.7
2018-May-15 03:30N 53°11' E 004°33'4 8.2
2018-May-15 03:00N 53°08' E 004°30'4 7.8
2018-May-15 02:28N 53°04' E 004°26'3 7.1
2018-May-15 02:00N 53°02' E 004°23'3 6.4
2018-May-15 01:31N 52°59' E 004°21'3 6.0
2018-May-15 01:00N 52°56' E 004°19'3 5.5
2018-May-15 00:30N 52°54' E 004°17'3 5.4
2018-May-14 23:55N 52°51' E 004°15'3 5.4
2018-May-14 23:21N 52°48' E 004°12'2 5.3
2018-May-14 22:54N 52°46' E 004°11'2 5.1
2018-May-14 22:30N 52°44' E 004°09'3 5.0
2018-May-14 22:00N 52°42' E 004°08'2 4.8
2018-May-14 21:30N 52°39' E 004°07'3 5.0
2018-May-14 21:00N 52°37' E 004°06'3 5.2
2018-May-14 20:30N 52°34' E 004°07'3 5.1
2018-May-14 20:00N 52°32' E 004°10'4 7.2
2018-May-14 19:30N 52°31' E 004°15'3 6.5
2018-May-14 19:00N 52°31' E 004°20'0 0.3
2018-May-14 18:24N 52°31' E 004°20'0 0.0
2018-May-14 17:45N 52°31' E 004°20'0 0.0
2018-May-14 17:21N 52°31' E 004°20'0 0.1
2018-May-14 16:48N 52°31' E 004°20'0 0.2
2018-May-14 16:30N 52°31' E 004°20'0 0.1
2018-May-14 16:00N 52°31' E 004°20'0 0.0
2018-May-14 15:27N 52°31' E 004°20'0 0.0
2018-May-14 15:00N 52°31' E 004°20'0 0.0
2018-May-14 14:30N 52°31' E 004°20'0 0.0
2018-May-14 13:51N 52°31' E 004°20'0 0.1
2018-May-14 13:30N 52°31' E 004°20'0 0.2
2018-May-14 13:00N 52°31' E 004°20'0 0.1
2018-May-14 12:30N 52°31' E 004°20'0 0.0
2018-May-14 11:54N 52°31' E 004°20'0 0.0
2018-May-14 09:00N 52°31' E 004°20'0 0.0
2018-May-14 08:30N 52°31' E 004°20'0 0.0
2018-May-14 07:51N 52°31' E 004°20'0 0.0
2018-May-14 06:42N 52°31' E 004°20'0 0.1
2018-May-14 06:27N 52°31' E 004°20'0 0.1
2018-May-14 05:57N 52°31' E 004°20'0 0.0
2018-May-14 05:30N 52°31' E 004°20'0 0.0
2018-May-14 05:00N 52°31' E 004°20'0 0.1
2018-May-14 04:30N 52°31' E 004°20'0 0.2
2018-May-14 04:00N 52°31' E 004°20'0 0.1
2018-May-14 03:30N 52°31' E 004°20'0 0.0
2018-May-14 03:00N 52°31' E 004°20'0 0.0
2018-May-14 02:30N 52°31' E 004°20'0 0.0
2018-May-14 01:57N 52°31' E 004°20'0 0.0
2018-May-14 01:21N 52°31' E 004°20'0 0.1
2018-May-14 00:51N 52°31' E 004°20'0 0.1
2018-May-14 00:18N 52°31' E 004°20'0 0.1
2018-May-14 00:00N 52°31' E 004°20'0 0.0
2018-May-13 23:27N 52°31' E 004°20'0 0.0
2018-May-13 22:57N 52°31' E 004°20'0 0.0
2018-May-13 18:51N 52°31' E 004°20'0 0.0
2018-May-13 18:24N 52°31' E 004°20'0 0.0
2018-May-13 18:00N 52°31' E 004°20'0 0.1
2018-May-13 17:27N 52°31' E 004°20'0 0.1
2018-May-13 16:06N 52°31' E 004°20'0 0.1
2018-May-13 16:00N 52°31' E 004°20'0 0.0
2018-May-13 15:27N 52°31' E 004°20'0 0.0
2018-May-13 15:00N 52°31' E 004°20'0 0.0
2018-May-13 14:30N 52°31' E 004°20'0 0.0
2018-May-13 13:54N 52°31' E 004°20'0 0.0
2018-May-13 13:30N 52°31' E 004°20'0 0.0
2018-May-13 12:51N 52°31' E 004°20'0 0.0
2018-May-13 12:27N 52°31' E 004°20'0 0.1
2018-May-13 12:00N 52°31' E 004°20'0 0.1
2018-May-13 11:30N 52°31' E 004°20'0 0.1
2018-May-13 11:00N 52°31' E 004°20'0 0.1
2018-May-13 10:27N 52°31' E 004°20'0 0.0
2018-May-13 08:09N 52°31' E 004°20'0 0.0
2018-May-13 07:57N 52°31' E 004°20'0 0.0
2018-May-13 07:30N 52°31' E 004°20'0 0.0
2018-May-13 07:00N 52°31' E 004°20'0 0.1
2018-May-13 06:30N 52°31' E 004°20'0 0.1
2018-May-13 05:33N 52°31' E 004°20'0 0.1
2018-May-13 05:30N 52°31' E 004°20'0 0.0
2018-May-13 05:00N 52°31' E 004°20'0 0.1
2018-May-13 04:30N 52°31' E 004°20'0 0.0
2018-May-13 03:57N 52°31' E 004°20'0 0.0
2018-May-13 03:30N 52°31' E 004°20'0 0.0
2018-May-13 03:00N 52°31' E 004°20'0 0.0
2018-May-13 02:27N 52°31' E 004°20'0 0.0
2018-May-13 01:48N 52°31' E 004°20'0 0.0
2018-May-13 01:30N 52°31' E 004°20'0 0.0
2018-May-13 00:57N 52°31' E 004°20'0 0.0
2018-May-13 00:30N 52°31' E 004°20'0 0.0
2018-May-12 23:54N 52°31' E 004°20'0 0.2
2018-May-12 23:30N 52°31' E 004°20'0 0.1
2018-May-12 22:54N 52°31' E 004°20'0 0.0
2018-May-12 22:21N 52°31' E 004°20'0 0.0
2018-May-12 21:51N 52°31' E 004°20'0 0.0
2018-May-12 21:27N 52°31' E 004°20'0 0.0
2018-May-12 21:00N 52°31' E 004°20'0 0.0
2018-May-12 20:30N 52°31' E 004°20'0 0.0
2018-May-12 20:00N 52°31' E 004°20'0 0.0
2018-May-12 19:30N 52°31' E 004°20'0 0.0
2018-May-12 19:00N 52°31' E 004°20'0 0.0
2018-May-12 18:30N 52°31' E 004°20'0 0.0
2018-May-12 17:54N 52°31' E 004°20'0 0.0
2018-May-12 16:33N 52°31' E 004°20'0 0.1
2018-May-12 16:30N 52°31' E 004°20'0 0.2
2018-May-12 15:54N 52°31' E 004°20'0 0.1
2018-May-12 15:27N 52°31' E 004°20'0 0.0
2018-May-12 14:54N 52°31' E 004°20'0 0.0
2018-May-12 14:27N 52°31' E 004°20'0 0.0
2018-May-12 13:54N 52°31' E 004°20'0 0.0
2018-May-12 13:24N 52°31' E 004°20'0 0.0
2018-May-12 12:42N 52°31' E 004°20'0 0.1
2018-May-12 12:27N 52°31' E 004°20'0 0.0
2018-May-12 11:51N 52°31' E 004°20'0 0.0
2018-May-12 11:27N 52°31' E 004°20'0 0.1
2018-May-12 10:57N 52°31' E 004°20'0 0.2
2018-May-12 10:27N 52°31' E 004°20'0 0.0
2018-May-12 09:54N 52°31' E 004°20'0 0.0
2018-May-12 09:30N 52°31' E 004°20'2 3.3
2018-May-12 09:00N 52°30' E 004°23'4 9.2
2018-May-12 08:30N 52°29' E 004°30'4 8.1
2018-May-12 08:00N 52°28' E 004°36'1 1.6
2018-May-12 07:30N 52°28' E 004°37'4 7.3
2018-May-12 07:01N 52°26' E 004°43'4 7.9
2018-May-12 06:30N 52°25' E 004°49'0 0.2
2018-May-12 06:00N 52°25' E 004°49'0 0.0
2018-May-12 05:30N 52°25' E 004°49'0 0.0
2018-May-12 04:57N 52°25' E 004°49'0 0.0
2018-May-12 04:30N 52°25' E 004°49'0 0.0
2018-May-12 04:00N 52°25' E 004°49'0 0.0
2018-May-12 03:27N 52°25' E 004°49'0 0.0
2018-May-12 03:00N 52°25' E 004°49'0 0.0
2018-May-12 02:30N 52°25' E 004°49'0 0.0
2018-May-12 02:00N 52°25' E 004°49'0 0.0
2018-May-12 01:30N 52°25' E 004°49'0 0.0
2018-May-12 01:00N 52°25' E 004°49'0 0.0
2018-May-12 00:30N 52°25' E 004°49'0 0.0
2018-May-12 00:00N 52°25' E 004°49'0 0.0
2018-May-11 23:30N 52°25' E 004°49'0 0.0
2018-May-11 22:57N 52°25' E 004°49'0 0.0
2018-May-11 22:30N 52°25' E 004°49'0 0.0
2018-May-11 21:48N 52°25' E 004°49'0 0.0
2018-May-11 21:30N 52°25' E 004°49'0 0.0
2018-May-11 20:57N 52°25' E 004°49'0 0.0
2018-May-11 20:30N 52°25' E 004°49'0 0.0
2018-May-11 20:00N 52°25' E 004°49'0 0.0
2018-May-11 19:27N 52°25' E 004°49'0 0.0
2018-May-11 19:00N 52°25' E 004°49'0 0.0
2018-May-11 18:30N 52°25' E 004°49'0 0.0
2018-May-11 18:00N 52°25' E 004°49'0 0.0
2018-May-11 17:30N 52°25' E 004°49'0 0.0
2018-May-11 17:00N 52°25' E 004°49'0 0.0
2018-May-11 16:30N 52°25' E 004°49'0 0.0
2018-May-11 16:00N 52°25' E 004°49'0 0.0
2018-May-11 15:30N 52°25' E 004°49'0 0.0
2018-May-11 15:01N 52°25' E 004°49'0 0.0
2018-May-11 14:25N 52°25' E 004°49'0 0.0
2018-May-11 13:55N 52°25' E 004°49'0 0.0
2018-May-11 13:28N 52°25' E 004°49'0 0.0
2018-May-11 12:55N 52°25' E 004°49'0 0.0
2018-May-11 12:28N 52°25' E 004°49'0 0.0
2018-May-11 11:55N 52°25' E 004°49'0 0.0
2018-May-11 11:28N 52°25' E 004°49'0 0.0
2018-May-11 10:58N 52°25' E 004°49'0 0.0
2018-May-11 10:25N 52°25' E 004°49'0 0.0
2018-May-11 09:58N 52°25' E 004°49'0 0.0
2018-May-11 09:28N 52°25' E 004°49'0 0.0
2018-May-11 08:55N 52°25' E 004°49'0 0.0
2018-May-11 08:28N 52°25' E 004°49'0 0.0
2018-May-11 07:58N 52°25' E 004°49'0 0.0
2018-May-11 07:25N 52°25' E 004°49'0 0.0
2018-May-11 06:58N 52°25' E 004°49'0 0.0
2018-May-11 06:28N 52°25' E 004°49'0 0.0
2018-May-11 05:52N 52°25' E 004°49'0 0.0
2018-May-11 05:28N 52°25' E 004°49'0 0.0
2018-May-11 04:58N 52°25' E 004°49'0 0.0
2018-May-11 04:28N 52°25' E 004°49'0 0.0
2018-May-11 03:58N 52°25' E 004°49'0 0.0
2018-May-11 03:25N 52°25' E 004°49'0 0.0
2018-May-11 02:58N 52°25' E 004°49'0 0.0
2018-May-11 02:28N 52°25' E 004°49'0 0.0
2018-May-11 01:58N 52°25' E 004°49'0 0.0
2018-May-11 01:28N 52°25' E 004°49'0 0.0
2018-May-11 00:55N 52°25' E 004°49'0 0.0
2018-May-11 00:28N 52°25' E 004°49'0 0.0
2018-May-10 23:58N 52°25' E 004°49'0 0.0
2018-May-10 23:28N 52°25' E 004°49'0 0.0
2018-May-10 22:58N 52°25' E 004°49'0 0.0
2018-May-10 22:28N 52°25' E 004°49'0 0.0
2018-May-10 21:58N 52°25' E 004°49'0 0.0
2018-May-10 21:22N 52°25' E 004°49'0 0.0
2018-May-10 20:58N 52°25' E 004°49'0 0.0
2018-May-10 20:28N 52°25' E 004°49'0 0.0
2018-May-10 19:58N 52°25' E 004°49'0 0.0
2018-May-10 19:25N 52°25' E 004°49'0 0.0
2018-May-10 18:58N 52°25' E 004°49'0 0.0
2018-May-10 18:28N 52°25' E 004°49'0 0.0
2018-May-10 17:59N 52°25' E 004°49'  

Dump ship's entire track history